createdAt,value
2022-11-20T00:03:15.820Z,13.85
2022-11-20T00:08:17.620Z,14.75
2022-11-20T00:13:19.420Z,10.95
2022-11-20T00:18:22.112Z,13.00
2022-11-20T00:23:24.635Z,10.40
2022-11-20T00:28:26.252Z,11.45
2022-11-20T00:33:29.303Z,10.15
2022-11-20T00:38:32.291Z,10.90
2022-11-20T00:43:34.147Z,11.48
2022-11-20T00:48:35.782Z,11.52
2022-11-20T00:53:37.351Z,10.93
2022-11-20T00:58:41.218Z,10.88
2022-11-20T01:03:49.002Z,12.15
2022-11-20T01:08:53.785Z,12.80
2022-11-20T01:13:57.117Z,11.73
2022-11-20T01:19:04.123Z,9.82
2022-11-20T01:24:09.090Z,12.63
2022-11-20T01:29:15.876Z,12.77
2022-11-20T01:34:20.346Z,13.25
2022-11-20T01:39:24.841Z,11.68
2022-11-20T01:44:52.297Z,26.27
2022-11-20T01:50:00.667Z,11.88
2022-11-20T01:55:10.116Z,10.48
2022-11-20T02:00:15.186Z,11.97
2022-11-20T02:05:18.222Z,10.57
2022-11-20T02:10:20.029Z,12.98
2022-11-20T02:15:24.104Z,11.98
2022-11-20T02:20:29.691Z,11.15
2022-11-20T02:25:34.809Z,11.95
2022-11-20T02:30:36.515Z,12.27
2022-11-20T02:35:45.196Z,10.98
2022-11-20T02:40:54.104Z,11.45
2022-11-20T02:45:57.521Z,11.75
2022-11-20T02:51:02.004Z,11.10
2022-11-20T02:56:24.744Z,12.70
2022-11-20T03:01:26.621Z,13.60
2022-11-20T03:06:28.544Z,11.98
2022-11-20T03:11:30.545Z,12.00
2022-11-20T03:16:33.006Z,11.00
2022-11-20T03:21:35.521Z,13.80
2022-11-20T03:26:37.209Z,11.40
2022-11-20T03:31:43.223Z,11.85
2022-11-20T03:36:45.898Z,12.88
2022-11-20T03:41:47.575Z,11.18
2022-11-20T03:46:49.336Z,11.02
2022-11-20T03:51:51.017Z,10.88
2022-11-20T03:56:52.621Z,12.00
2022-11-20T04:01:54.480Z,11.77
2022-11-20T04:06:56.276Z,14.00
2022-11-20T04:11:58.036Z,13.45
2022-11-20T04:17:00.810Z,11.90
2022-11-20T04:22:02.445Z,11.80
2022-11-20T04:27:04.188Z,12.32
2022-11-20T04:32:05.827Z,12.50
2022-11-20T04:37:07.402Z,11.52
2022-11-20T04:42:29.248Z,11.52
2022-11-20T04:47:30.921Z,12.18
2022-11-20T04:52:36.586Z,12.60
2022-11-20T04:57:38.221Z,11.82
2022-11-20T05:02:39.964Z,13.45
2022-11-20T05:07:41.731Z,13.88
2022-11-20T05:12:43.410Z,12.77
2022-11-20T05:17:52.991Z,11.88
2022-11-20T05:22:58.420Z,13.60
2022-11-20T05:28:00.035Z,13.88
2022-11-20T05:33:01.741Z,14.05
2022-11-20T05:38:04.493Z,13.50
2022-11-20T05:43:06.318Z,12.43
2022-11-20T05:48:16.230Z,11.55
2022-11-20T05:53:18.130Z,14.68
2022-11-20T05:58:20.864Z,12.35
2022-11-20T06:03:22.495Z,15.05
2022-11-20T06:08:24.182Z,12.48
2022-11-20T06:13:27.005Z,16.20
2022-11-20T06:18:30.168Z,12.57
2022-11-20T06:23:33.415Z,15.02
2022-11-20T06:28:35.514Z,13.38
2022-11-20T06:33:38.123Z,16.23
2022-11-20T06:38:40.865Z,12.90
2022-11-20T06:43:42.819Z,15.70
2022-11-20T06:48:44.676Z,13.63
2022-11-20T06:53:46.643Z,14.30
2022-11-20T06:58:48.754Z,14.73
2022-11-20T07:03:54.393Z,15.55
2022-11-20T07:08:56.413Z,15.32
2022-11-20T07:14:15.688Z,15.07
2022-11-20T07:19:21.824Z,14.77
2022-11-20T07:24:24.505Z,17.13
2022-11-20T07:29:28.239Z,15.57
2022-11-20T07:34:30.155Z,14.93
2022-11-20T07:39:55.974Z,17.75
2022-11-20T07:45:00.832Z,16.63
2022-11-20T07:50:05.303Z,17.55
2022-11-20T07:55:36.858Z,18.02
2022-11-20T08:00:41.105Z,18.77
2022-11-20T08:05:43.038Z,16.85
2022-11-20T08:10:44.726Z,18.38
2022-11-20T08:15:51.400Z,17.27
2022-11-20T08:20:53.323Z,16.83
2022-11-20T08:25:56.091Z,16.30
2022-11-20T08:31:03.774Z,19.33
2022-11-20T08:36:06.404Z,17.17
2022-11-20T08:41:26.833Z,19.15
2022-11-20T08:46:39.627Z,16.77
2022-11-20T08:51:42.470Z,16.75
2022-11-20T08:56:44.213Z,15.88
2022-11-20T09:01:53.574Z,16.73
2022-11-20T09:06:56.456Z,18.37
2022-11-20T09:11:58.929Z,16.52
2022-11-20T09:17:01.895Z,16.75
2022-11-20T09:22:06.815Z,18.80
2022-11-20T09:27:08.669Z,17.35
2022-11-20T09:32:10.349Z,18.15
2022-11-20T09:42:41.500Z,19.23
2022-11-20T09:48:02.186Z,16.20
2022-11-20T09:53:21.595Z,18.90
2022-11-20T09:58:36.444Z,16.83
2022-11-20T10:04:12.744Z,17.50
2022-11-20T10:09:33.359Z,19.80
2022-11-20T10:14:41.687Z,18.70
2022-11-20T10:25:37.832Z,19.70
2022-11-20T10:30:44.245Z,19.48
2022-11-20T10:36:09.230Z,18.60
2022-11-20T10:41:27.288Z,24.25
2022-11-20T10:46:38.575Z,21.58
2022-11-20T10:51:58.994Z,21.13
2022-11-20T10:57:11.454Z,23.65
2022-11-20T11:02:54.084Z,24.85
2022-11-20T11:07:57.327Z,25.10
2022-11-20T11:12:59.247Z,23.75
2022-11-20T11:18:03.059Z,23.42
2022-11-20T11:23:11.614Z,27.77
2022-11-20T11:28:19.123Z,25.40
2022-11-20T11:33:31.443Z,26.98
2022-11-20T11:38:44.299Z,25.23
2022-11-20T11:44:17.118Z,28.50
2022-11-20T11:49:21.223Z,29.23
2022-11-20T11:55:00.821Z,33.45
2022-11-20T12:00:11.760Z,30.80
2022-11-20T12:05:38.246Z,26.58
2022-11-20T12:11:11.106Z,34.20
2022-11-20T12:16:16.100Z,30.20
2022-11-20T12:21:24.522Z,32.15
2022-11-20T12:26:48.259Z,33.55
2022-11-20T12:31:58.904Z,32.10
2022-11-20T12:37:10.713Z,39.72
2022-11-20T12:43:03.277Z,32.65
2022-11-20T12:48:29.859Z,35.80
2022-11-20T12:53:57.954Z,34.25
2022-11-20T12:59:10.706Z,36.03
2022-11-20T13:04:27.452Z,33.22
2022-11-20T13:09:30.581Z,28.98
2022-11-20T13:14:41.319Z,34.60
2022-11-20T13:19:47.572Z,32.08
2022-11-20T13:24:54.544Z,35.00
2022-11-20T13:30:03.498Z,34.60
2022-11-20T13:35:06.562Z,33.38
2022-11-20T13:40:13.811Z,31.25
2022-11-20T13:45:32.828Z,34.53
2022-11-20T13:50:37.480Z,30.63
2022-11-20T13:55:48.631Z,35.53
2022-11-20T14:01:02.067Z,33.55
2022-11-20T14:06:14.760Z,31.00
2022-11-20T14:11:19.967Z,31.92
2022-11-20T14:16:22.441Z,30.38
2022-11-20T14:21:28.286Z,33.75
2022-11-20T14:26:30.210Z,35.42
2022-11-20T14:31:33.119Z,34.88
2022-11-20T14:36:34.916Z,32.88
2022-11-20T14:41:36.587Z,32.85
2022-11-20T14:46:38.397Z,30.88
2022-11-20T14:51:44.238Z,32.75
2022-11-20T14:57:05.105Z,32.13
2022-11-20T15:02:11.523Z,29.88
2022-11-20T15:07:29.489Z,33.65
2022-11-20T15:12:33.666Z,34.58
2022-11-20T15:17:41.082Z,31.05
2022-11-20T15:22:43.138Z,33.65
2022-11-20T15:27:46.661Z,30.08
2022-11-20T15:32:48.719Z,35.00
2022-11-20T15:37:51.323Z,48.45
2022-11-20T15:43:09.726Z,36.28
2022-11-20T15:48:20.398Z,34.67
2022-11-20T15:53:22.244Z,30.50
2022-11-20T15:58:25.225Z,30.88
2022-11-20T16:03:29.170Z,30.33
2022-11-20T16:08:30.937Z,27.08
2022-11-20T16:13:52.186Z,24.10
2022-11-20T16:18:53.960Z,26.08
2022-11-20T16:24:04.800Z,24.77
2022-11-20T16:29:07.994Z,26.20
2022-11-20T16:34:12.342Z,26.95
2022-11-20T16:39:19.006Z,28.90
2022-11-20T16:44:27.086Z,23.43
2022-11-20T16:49:33.990Z,23.55
2022-11-20T16:54:36.169Z,24.90
2022-11-20T16:59:38.174Z,24.95
2022-11-20T17:04:41.465Z,23.85
2022-11-20T17:10:02.037Z,24.45
2022-11-20T17:15:05.741Z,23.75
2022-11-20T17:20:38.497Z,27.45
2022-11-20T17:25:40.777Z,30.60
2022-11-20T17:30:45.071Z,27.58
2022-11-20T17:35:47.183Z,26.77
2022-11-20T17:40:49.154Z,24.38
2022-11-20T17:45:50.810Z,24.15
2022-11-20T17:50:52.616Z,21.08
2022-11-20T17:56:16.632Z,27.02
2022-11-20T18:01:22.069Z,22.20
2022-11-20T18:06:26.420Z,22.52
2022-11-20T18:11:30.587Z,21.92
2022-11-20T18:16:37.699Z,23.65
2022-11-20T18:21:45.462Z,20.45
2022-11-20T18:26:47.136Z,21.10
2022-11-20T18:31:50.059Z,22.52
2022-11-20T18:36:51.864Z,20.80
2022-11-20T18:42:13.284Z,26.38
2022-11-20T18:47:17.896Z,22.13
2022-11-20T18:52:22.862Z,25.48
2022-11-20T18:57:27.204Z,22.05
2022-11-20T19:02:29.259Z,23.92
2022-11-20T19:07:41.667Z,21.60
2022-11-20T19:12:43.563Z,23.70
2022-11-20T19:17:46.397Z,25.38
2022-11-20T19:22:51.363Z,21.08
2022-11-20T19:27:52.980Z,23.02
2022-11-20T19:32:58.145Z,24.10
2022-11-20T19:38:05.215Z,21.65
2022-11-20T19:43:09.370Z,24.70
2022-11-20T19:48:13.101Z,22.23
2022-11-20T19:53:15.082Z,19.77
2022-11-20T19:58:16.844Z,21.08
2022-11-20T20:03:18.745Z,21.98
2022-11-20T20:08:20.499Z,20.85
2022-11-20T20:13:22.171Z,22.13
2022-11-20T20:18:23.943Z,24.17
2022-11-20T20:23:25.654Z,23.50
2022-11-20T20:28:28.003Z,24.27
2022-11-20T20:33:30.001Z,25.30
2022-11-20T20:38:31.672Z,22.17
2022-11-20T20:43:53.429Z,22.60
2022-11-20T20:48:56.238Z,27.25
2022-11-20T20:53:57.958Z,23.40
2022-11-20T20:58:59.650Z,21.88
2022-11-20T21:04:01.931Z,22.05
2022-11-20T21:09:03.911Z,22.73
2022-11-20T21:14:05.487Z,22.38
2022-11-20T21:19:08.277Z,20.85
2022-11-20T21:24:09.906Z,22.40
2022-11-20T21:29:11.737Z,21.45
2022-11-20T21:34:14.589Z,21.17
2022-11-20T21:39:21.774Z,24.67
2022-11-20T21:44:31.300Z,23.85
2022-11-20T21:49:34.656Z,22.63
2022-11-20T21:54:38.550Z,24.02
2022-11-20T21:59:40.310Z,24.45
2022-11-20T22:04:42.091Z,31.00
2022-11-20T22:09:45.812Z,28.05
2022-11-20T22:14:49.670Z,33.22
2022-11-20T22:19:51.409Z,29.02
2022-11-20T22:24:53.079Z,30.98
2022-11-20T22:29:54.829Z,30.80
2022-11-20T22:34:56.610Z,34.95
2022-11-20T22:39:58.431Z,38.22
2022-11-20T22:45:00.136Z,35.70
2022-11-20T22:50:02.059Z,34.47
2022-11-20T22:55:05.050Z,34.13
2022-11-20T23:00:08.514Z,36.03
2022-11-20T23:05:10.247Z,32.70
2022-11-20T23:10:13.608Z,32.75
2022-11-20T23:15:15.309Z,32.20
2022-11-20T23:20:17.188Z,33.13
2022-11-20T23:25:21.952Z,35.88
2022-11-20T23:30:23.604Z,30.80
2022-11-20T23:35:25.334Z,35.83
2022-11-20T23:40:26.978Z,35.13
2022-11-20T23:45:28.745Z,40.55
2022-11-20T23:50:30.502Z,34.90
2022-11-20T23:55:33.022Z,36.17
